Time;durP1;ratioP1;P1;durP2;ratioP2;P2;SDS_P1;SDS_P2;PMS_P1;PMS_P2;Temp;Humidity;BMP_temperature;BMP_pressure;BME280_temperature;BME280_humidity;BME280_pressure;Samples;Min_cycle;Max_cycle;Signal;HPM_P1;HPM_P2
2021/07/30 00:00:08;;;;;;;27.92;17.60;;;;;;;21.45;67.61;98201.31;4958095;28;20070;-75
2021/07/30 00:02:34;;;;;;;;;;;;;;;21.48;67.50;98198.56;4966169;28;20473;-76
2021/07/30 00:05:00;;;;;;;37.07;18.40;;;;;;;21.40;67.88;98194.13;4966582;28;19976;-75
2021/07/30 00:07:26;;;;;;;32.70;17.38;;;;;;;21.38;68.21;98196.50;4929342;28;20036;-75
2021/07/30 00:09:53;;;;;;;27.83;18.63;;;;;;;21.34;68.05;98202.03;4940129;28;20047;-76
2021/07/30 00:12:20;;;;;;;31.30;17.43;;;;;;;21.33;68.48;98196.88;4963055;28;20054;-76
2021/07/30 00:14:46;;;;;;;31.80;18.98;;;;;;;21.26;68.51;98200.41;4952973;28;20055;-76
2021/07/30 00:17:12;;;;;;;31.40;17.42;;;;;;;21.19;69.03;98194.78;4962276;28;20138;-76
2021/07/30 00:19:39;;;;;;;33.38;18.65;;;;;;;21.10;69.03;98201.50;4961026;28;20054;-75
2021/07/30 00:22:05;;;;;;;28.65;18.38;;;;;;;21.03;69.45;98198.63;4957300;28;20117;-75
2021/07/30 00:24:31;;;;;;;29.33;18.60;;;;;;;20.97;69.36;98186.28;4949407;28;20043;-76
2021/07/30 00:27:03;;;;;;;33.80;18.13;;;;;;;21.06;69.04;98192.31;4941822;28;20051;-76
2021/07/30 00:29:31;;;;;;;33.13;18.52;;;;;;;21.08;69.11;98192.75;4961014;28;20423;-75
2021/07/30 00:32:00;;;;;;;32.03;18.80;;;;;;;20.64;70.28;98165.75;4958850;28;20101;-71
2021/07/30 00:34:26;;;;;;;31.33;19.05;;;;;;;20.69;70.96;98195.94;4958542;28;20043;-70
2021/07/30 00:36:52;;;;;;;32.40;18.75;;;;;;;20.53;71.88;98191.41;4956763;28;20043;-72
2021/07/30 00:39:18;;;;;;;33.25;19.50;;;;;;;20.48;72.01;98193.75;4950916;28;20142;-72
2021/07/30 00:41:44;;;;;;;35.47;20.13;;;;;;;20.51;71.90;98199.34;4941035;28;20039;-72
2021/07/30 00:44:10;;;;;;;33.28;18.95;;;;;;;20.57;71.53;98194.25;4951099;28;20116;-72
2021/07/30 00:46:38;;;;;;;28.98;18.67;;;;;;;20.71;70.94;98193.56;4952653;28;20050;-71
2021/07/30 00:49:05;;;;;;;34.40;19.17;;;;;;;20.72;70.70;98186.06;4949730;28;20058;-71
2021/07/30 00:51:32;;;;;;;33.08;19.63;;;;;;;20.81;70.47;98194.88;4948462;28;20427;-72
2021/07/30 00:53:59;;;;;;;26.30;18.60;;;;;;;20.82;69.89;98191.72;4965987;28;20047;-71
2021/07/30 00:56:24;;;;;;;34.65;19.60;;;;;;;20.77;70.28;98194.84;4966606;28;20074;-70
2021/07/30 00:58:52;;;;;;;31.38;19.25;;;;;;;20.54;71.76;98195.78;4957870;28;20082;-71
2021/07/30 01:01:18;;;;;;;34.53;19.90;;;;;;;20.44;72.10;98190.91;4957402;28;20058;-72
2021/07/30 01:03:45;;;;;;;35.72;20.45;;;;;;;20.43;72.17;98183.00;4934734;29;20138;-72
2021/07/30 01:06:12;;;;;;;36.08;19.23;;;;;;;20.61;71.17;98194.28;4939390;28;20039;-72
2021/07/30 01:08:38;;;;;;;32.13;20.08;;;;;;;20.51;72.02;98192.97;4958548;28;20473;-72
2021/07/30 01:11:04;;;;;;;35.57;21.17;;;;;;;20.42;72.48;98190.50;4946711;28;20050;-72
2021/07/30 01:13:30;;;;;;;31.95;20.65;;;;;;;20.34;72.62;98184.06;4960159;28;20318;-72
2021/07/30 01:15:58;;;;;;;33.25;20.05;;;;;;;20.45;72.01;98189.75;4959720;28;20104;-72
2021/07/30 01:18:24;;;;;;;37.45;20.00;;;;;;;20.38;72.39;98181.34;4959140;28;20082;-71
2021/07/30 01:21:01;;;;;;;31.27;19.92;;;;;;;20.23;73.26;98195.06;4961274;28;20097;-72
2021/07/30 01:23:29;;;;;;;31.77;20.38;;;;;;;20.20;73.35;98181.16;4953400;28;20493;-72
2021/07/30 01:25:55;;;;;;;32.33;19.88;;;;;;;20.26;72.90;98191.53;4957978;28;20106;-72
2021/07/30 01:28:21;;;;;;;35.08;20.42;;;;;;;20.48;72.24;98190.97;4961612;28;20070;-71
2021/07/30 01:30:47;;;;;;;27.73;18.27;;;;;;;20.61;71.74;98181.19;4957544;28;20078;-72
2021/07/30 01:33:13;;;;;;;31.20;17.65;;;;;;;20.76;71.11;98178.53;4957249;28;20131;-72
2021/07/30 01:35:39;;;;;;;29.17;17.95;;;;;;;20.79;71.10;98183.31;4957143;28;20095;-72
2021/07/30 01:38:05;;;;;;;28.13;18.63;;;;;;;20.68;71.33;98184.03;4961374;28;20046;-72
2021/07/30 01:40:32;;;;;;;32.53;19.20;;;;;;;20.48;72.11;98177.91;4966342;28;20039;-72
2021/07/30 01:42:58;;;;;;;31.02;18.35;;;;;;;20.49;72.35;98187.00;4965210;28;20042;-72
2021/07/30 01:45:24;;;;;;;31.13;19.27;;;;;;;20.29;72.99;98192.75;4952390;28;20055;-73
2021/07/30 01:47:51;;;;;;;32.40;19.52;;;;;;;20.19;73.46;98193.41;4955393;28;20515;-72
2021/07/30 01:50:17;;;;;;;31.17;19.50;;;;;;;20.15;73.51;98198.94;4951604;28;20047;-72
2021/07/30 01:52:43;;;;;;;30.33;19.98;;;;;;;20.14;73.89;98186.25;4964842;28;20054;-72
2021/07/30 01:55:10;;;;;;;32.90;19.15;;;;;;;20.15;73.73;98185.09;4955900;28;20047;-72
2021/07/30 01:57:38;;;;;;;30.93;19.20;;;;;;;20.10;73.78;98179.84;4949723;28;20051;-71
2021/07/30 02:00:05;;;;;;;31.60;20.58;;;;;;;20.12;73.72;98186.63;4955278;28;20311;-72
2021/07/30 02:02:38;;;;;;;29.70;18.92;;;;;;;20.16;73.32;98191.41;4980789;28;20051;-71
2021/07/30 02:05:06;;;;;;;28.15;18.50;;;;;;;20.09;73.36;98181.03;4961270;28;20523;-72
2021/07/30 02:07:34;;;;;;;33.05;19.13;;;;;;;20.22;73.24;98198.25;4958715;28;20384;-71
2021/07/30 02:10:00;;;;;;;33.58;20.00;;;;;;;20.21;72.97;98179.97;4961961;28;20047;-71
2021/07/30 02:12:27;;;;;;;30.92;19.08;;;;;;;20.34;72.72;98184.06;4948865;28;20078;-72
2021/07/30 02:14:54;;;;;;;27.53;18.43;;;;;;;20.40;72.21;98187.31;4959056;28;20055;-71
2021/07/30 02:17:20;;;;;;;26.92;17.88;;;;;;;20.32;72.40;98171.78;4957498;28;20039;-72
2021/07/30 02:19:46;;;;;;;28.70;17.80;;;;;;;20.39;72.13;98180.16;4968961;28;20232;-72
2021/07/30 02:22:12;;;;;;;27.95;16.55;;;;;;;20.51;71.58;98176.31;4964005;28;20035;-72
2021/07/30 02:24:38;;;;;;;26.52;16.98;;;;;;;20.49;71.51;98170.34;4941380;28;20158;-72
2021/07/30 02:27:05;;;;;;;25.00;17.10;;;;;;;20.49;71.68;98173.94;4958234;28;20047;-72
2021/07/30 02:29:31;;;;;;;30.00;18.40;;;;;;;20.37;72.32;98183.34;4951266;28;20138;-72
2021/07/30 02:31:58;;;;;;;33.40;18.50;;;;;;;20.31;72.55;98184.06;4950951;28;20409;-70
2021/07/30 02:34:24;;;;;;;26.95;18.02;;;;;;;20.21;73.14;98189.09;4956616;28;20065;-70
2021/07/30 02:36:53;;;;;;;29.20;18.98;;;;;;;20.18;73.02;98184.31;4960259;28;20436;-71
2021/07/30 02:39:19;;;;;;;28.88;18.23;;;;;;;20.37;72.33;98177.78;4961142;28;20416;-72
2021/07/30 02:41:46;;;;;;;27.80;18.37;;;;;;;20.52;71.63;98184.28;4953273;28;20124;-71
2021/07/30 02:44:12;;;;;;;28.67;17.90;;;;;;;20.54;71.47;98179.13;4955973;28;20138;-70
2021/07/30 02:46:38;;;;;;;35.97;20.00;;;;;;;20.60;71.61;98190.69;4969347;28;20138;-72
2021/07/30 02:49:05;;;;;;;35.03;19.95;;;;;;;20.58;71.59;98189.47;4968868;28;20050;-72
2021/07/30 02:51:31;;;;;;;33.22;20.60;;;;;;;20.61;71.29;98183.97;4980698;28;20047;-72
2021/07/30 02:53:57;;;;;;;33.42;22.98;;;;;;;20.61;71.18;98183.97;4974790;28;20534;-71
2021/07/30 02:56:23;;;;;;;36.40;24.95;;;;;;;20.59;71.46;98182.72;4952837;28;20043;-71
2021/07/30 02:58:49;;;;;;;41.08;27.30;;;;;;;20.52;71.66;98177.91;4958653;28;20035;-71
2021/07/30 03:01:15;;;;;;;46.70;28.38;;;;;;;20.60;71.29;98187.09;4965427;28;20426;-71
2021/07/30 03:03:41;;;;;;;35.88;27.42;;;;;;;20.65;71.32;98179.22;4965237;28;20511;-72
2021/07/30 03:06:09;;;;;;;41.10;26.58;;;;;;;20.55;71.75;98182.72;4953617;28;20555;-72
2021/07/30 03:08:35;;;;;;;36.95;25.27;;;;;;;20.57;72.08;98176.78;4970041;28;20084;-70
2021/07/30 03:11:01;;;;;;;37.95;24.98;;;;;;;20.57;71.86;98176.78;4979096;28;20055;-72
2021/07/30 03:13:27;;;;;;;39.70;26.23;;;;;;;20.60;72.08;98181.56;4974181;28;20603;-71
2021/07/30 03:15:53;;;;;;;37.80;25.38;;;;;;;20.65;71.69;98178.44;4968887;28;20137;-71
2021/07/30 03:18:19;;;;;;;37.90;25.15;;;;;;;20.64;71.72;98174.06;4959592;28;20034;-71
2021/07/30 03:20:45;;;;;;;34.78;23.42;;;;;;;20.69;71.61;98176.50;4919410;28;20432;-73
2021/07/30 03:23:13;;;;;;;32.92;23.58;;;;;;;20.68;71.69;98178.50;4947709;28;20049;-71
2021/07/30 03:25:39;;;;;;;31.60;22.77;;;;;;;20.65;71.55;98181.22;4967322;28;20057;-72
2021/07/30 03:28:05;;;;;;;33.10;22.95;;;;;;;20.65;71.90;98184.78;4958808;28;20130;-72
2021/07/30 03:30:31;;;;;;;26.13;20.30;;;;;;;20.67;71.38;98184.41;4942014;29;20043;-72
2021/07/30 03:32:57;;;;;;;35.35;18.73;;;;;;;20.77;71.15;98175.41;4930509;28;20149;-71
2021/07/30 03:35:24;;;;;;;28.95;18.52;;;;;;;20.85;70.56;98181.84;4950748;28;20055;-70
2021/07/30 03:37:50;;;;;;;26.65;18.58;;;;;;;21.02;69.67;98180.38;4967818;28;20043;-71
2021/07/30 03:40:17;;;;;;;30.92;19.05;;;;;;;21.12;69.72;98176.06;4959238;28;20047;-72
2021/07/30 03:42:44;;;;;;;33.35;18.83;;;;;;;21.20;69.45;98168.59;4956696;28;20134;-72
2021/07/30 03:45:10;;;;;;;27.00;17.95;;;;;;;21.33;69.14;98181.00;4958937;28;20043;-73
2021/07/30 03:47:36;;;;;;;27.13;18.10;;;;;;;21.34;69.01;98177.03;4935126;29;20043;-72
2021/07/30 03:50:03;;;;;;;32.85;18.92;;;;;;;21.43;68.95;98184.25;4962534;28;20053;-72
2021/07/30 03:52:29;;;;;;;26.67;16.65;;;;;;;21.35;68.75;98175.84;4969197;28;20373;-71
2021/07/30 03:54:55;;;;;;;30.58;17.35;;;;;;;21.49;68.49;98186.25;4957414;28;20105;-72
2021/07/30 03:57:22;;;;;;;23.42;16.23;;;;;;;21.51;68.68;98194.19;4953819;28;20043;-72
2021/07/30 03:59:49;;;;;;;22.50;14.82;;;;;;;21.44;68.54;98191.38;4959857;28;20046;-72
2021/07/30 04:02:16;;;;;;;27.25;16.00;;;;;;;21.35;68.98;98198.06;4949481;28;20126;-72
2021/07/30 04:04:43;;;;;;;23.77;15.75;;;;;;;21.40;68.72;98202.47;4965690;28;20050;-71
2021/07/30 04:07:09;;;;;;;26.33;15.90;;;;;;;21.36;69.02;98205.22;4963392;28;20062;-71
2021/07/30 04:09:35;;;;;;;24.70;15.90;;;;;;;21.44;68.78;98200.50;4967883;28;20082;-71
2021/07/30 04:12:01;;;;;;;22.20;16.95;;;;;;;21.54;68.45;98210.91;4965430;28;20062;-71
2021/07/30 04:14:28;;;;;;;26.23;16.90;;;;;;;21.61;68.67;98207.38;4963519;28;20047;-72
2021/07/30 04:16:54;;;;;;;29.42;17.98;;;;;;;21.65;68.31;98212.97;4938027;28;20047;-71
2021/07/30 04:19:21;;;;;;;25.27;17.63;;;;;;;21.49;68.59;98208.50;4959084;28;20047;-72
2021/07/30 04:21:47;;;;;;;29.20;18.33;;;;;;;21.41;68.96;98209.63;4964229;28;20049;-70
2021/07/30 04:24:13;;;;;;;28.35;19.08;;;;;;;21.34;68.98;98204.81;4955364;28;20038;-72
2021/07/30 04:26:39;;;;;;;28.15;18.42;;;;;;;21.44;68.91;98205.28;4969600;28;20043;-73
2021/07/30 04:29:05;;;;;;;32.20;18.75;;;;;;;21.48;69.08;98206.91;4961973;28;20089;-73
2021/07/30 04:31:32;;;;;;;35.75;18.15;;;;;;;21.52;68.87;98204.13;4957532;28;20085;-74
2021/07/30 04:33:59;;;;;;;33.13;18.98;;;;;;;21.48;68.74;98204.13;4955305;28;20334;-74
2021/07/30 04:36:25;;;;;;;30.17;18.80;;;;;;;21.49;68.59;98207.69;4962884;28;20090;-73
2021/07/30 04:38:51;;;;;;;31.85;18.48;;;;;;;21.52;69.02;98202.16;4968204;28;20039;-73
2021/07/30 04:41:17;;;;;;;31.33;18.92;;;;;;;21.51;69.05;98200.56;5011536;28;20039;-74
2021/07/30 04:43:43;;;;;;;29.95;19.77;;;;;;;21.57;69.05;98200.19;4981378;28;20043;-75
2021/07/30 04:46:14;;;;;;;29.48;18.58;;;;;;;21.54;68.76;98205.34;4980043;28;20050;-72
2021/07/30 04:48:42;;;;;;;34.75;18.60;;;;;;;21.58;68.84;98208.16;4974383;28;20426;-70
2021/07/30 04:51:08;;;;;;;33.47;18.92;;;;;;;21.62;68.70;98206.19;4960212;28;20141;-71
2021/07/30 04:53:34;;;;;;;32.20;18.23;;;;;;;21.67;68.46;98200.28;4961659;28;20096;-71
2021/07/30 04:56:01;;;;;;;32.83;19.40;;;;;;;21.73;68.63;98197.94;4947415;28;20042;-73
2021/07/30 04:58:27;;;;;;;35.58;19.17;;;;;;;21.81;67.87;98194.00;4957847;28;20051;-72
2021/07/30 05:00:53;;;;;;;30.05;17.75;;;;;;;21.85;67.96;98185.66;4952842;28;20051;-73
2021/07/30 05:03:19;;;;;;;31.27;19.02;;;;;;;21.95;67.72;98193.28;4958257;28;20392;-72
2021/07/30 05:05:46;;;;;;;31.40;19.00;;;;;;;22.02;67.53;98192.50;4935543;28;20448;-71
2021/07/30 05:08:13;;;;;;;33.47;19.08;;;;;;;22.07;67.57;98194.13;4935582;28;20079;-72
2021/07/30 05:10:39;;;;;;;31.50;17.88;;;;;;;22.12;67.06;98187.38;4957756;28;20042;-71
2021/07/30 05:13:04;;;;;;;29.75;19.48;;;;;;;22.10;66.84;98187.75;4959972;28;20101;-71
2021/07/30 05:15:31;;;;;;;28.08;18.08;;;;;;;22.18;67.14;98197.75;4960186;28;20453;-72
2021/07/30 05:17:58;;;;;;;31.58;20.25;;;;;;;22.21;67.07;98196.97;4957907;28;20043;-71
2021/07/30 05:20:24;;;;;;;;;;;;;;;22.18;67.22;98202.50;4956042;28;20054;-72
2021/07/30 05:22:51;;;;;;;32.70;20.25;;;;;;;22.02;67.63;98203.63;4930381;28;20071;-71
2021/07/30 05:25:18;;;;;;;34.88;20.13;;;;;;;22.03;67.61;98205.22;4966885;28;20073;-71
2021/07/30 05:27:44;;;;;;;53.50;22.10;;;;;;;22.00;67.74;98217.16;4947961;28;20047;-72
2021/07/30 05:30:12;;;;;;;41.22;20.15;;;;;;;22.01;67.81;98210.38;4953828;28;20061;-74
2021/07/30 05:32:38;;;;;;;38.15;19.48;;;;;;;21.88;68.48;98225.81;4942399;28;20054;-73
2021/07/30 05:35:08;;;;;;;26.52;18.45;;;;;;;21.56;69.15;98215.28;4961422;28;20038;-71
2021/07/30 05:37:38;;;;;;;28.23;19.00;;;;;;;21.50;69.79;98203.72;4963329;28;20043;-72
2021/07/30 05:40:10;;;;;;;26.63;17.38;;;;;;;21.68;69.30;98212.22;4981895;28;20411;-69
2021/07/30 05:42:37;;;;;;;28.63;17.50;;;;;;;21.71;69.01;98207.88;4962030;28;20039;-74
2021/07/30 05:45:03;;;;;;;33.20;17.80;;;;;;;21.76;68.67;98216.63;4966356;28;20057;-73
2021/07/30 05:47:29;;;;;;;29.15;16.63;;;;;;;21.74;68.97;98210.66;4972786;28;20050;-73
2021/07/30 05:49:55;;;;;;;42.53;16.38;;;;;;;21.82;68.66;98222.63;4944732;28;20057;-72
2021/07/30 05:52:21;;;;;;;28.15;16.67;;;;;;;21.86;68.15;98211.50;4942495;28;20047;-73
2021/07/30 05:54:48;;;;;;;33.78;16.73;;;;;;;21.94;68.07;98200.03;4965002;28;20047;-72
2021/07/30 05:57:16;;;;;;;29.33;15.68;;;;;;;22.07;67.95;98203.25;5039157;28;20495;-73
2021/07/30 05:59:42;;;;;;;24.33;15.27;;;;;;;22.24;67.41;98206.50;4958206;28;20055;-73
2021/07/30 06:02:08;;;;;;;24.40;14.35;;;;;;;22.42;66.56;98211.34;4948490;28;20128;-73
2021/07/30 06:04:34;;;;;;;29.20;15.25;;;;;;;22.53;66.30;98206.59;4946681;28;20043;-74
2021/07/30 06:07:00;;;;;;;26.38;14.75;;;;;;;22.57;66.13;98213.00;4971426;28;20053;-74
2021/07/30 06:09:26;;;;;;;24.58;14.32;;;;;;;22.67;65.66;98205.84;4960499;28;20344;-74
2021/07/30 06:11:52;;;;;;;28.80;14.85;;;;;;;22.78;65.34;98209.41;4955954;28;20043;-73
2021/07/30 06:14:20;;;;;;;24.65;15.50;;;;;;;22.87;65.06;98214.63;4945821;28;20043;-74
2021/07/30 06:16:45;;;;;;;22.38;14.55;;;;;;;22.91;64.87;98212.63;4952680;28;20047;-74
2021/07/30 06:19:11;;;;;;;28.33;15.07;;;;;;;22.92;64.88;98219.00;4958591;28;20145;-73
2021/07/30 06:21:37;;;;;;;21.83;14.07;;;;;;;22.99;64.88;98218.19;4952899;28;20047;-73
2021/07/30 06:24:04;;;;;;;24.33;14.88;;;;;;;23.07;64.47;98220.59;4968398;28;20391;-73
2021/07/30 06:26:30;;;;;;;22.02;14.27;;;;;;;23.17;64.25;98218.22;4962305;28;20414;-73
2021/07/30 06:28:57;;;;;;;30.75;14.65;;;;;;;23.19;63.95;98205.47;4978161;28;20085;-74
2021/07/30 06:31:25;;;;;;;23.17;14.60;;;;;;;23.22;64.02;98217.81;4982734;28;20526;-73
2021/07/30 06:33:51;;;;;;;26.48;15.57;;;;;;;23.20;63.99;98223.78;4974759;28;20104;-72
2021/07/30 06:36:17;;;;;;;22.65;14.85;;;;;;;23.23;63.85;98219.38;4985937;28;20514;-72
2021/07/30 06:38:43;;;;;;;24.75;14.80;;;;;;;23.19;63.68;98205.47;4981899;28;20050;-71
2021/07/30 06:41:13;;;;;;;26.80;16.30;;;;;;;23.28;63.92;98219.03;4970448;28;20091;-72
2021/07/30 06:43:39;;;;;;;25.10;14.35;;;;;;;23.28;63.79;98212.66;4963715;28;20164;-72
2021/07/30 06:46:06;;;;;;;29.48;14.90;;;;;;;23.28;63.70;98213.47;4985604;28;20034;-71
2021/07/30 06:48:33;;;;;;;30.40;14.88;;;;;;;23.33;63.66;98215.84;4983343;28;20156;-72
2021/07/30 06:50:59;;;;;;;23.20;14.82;;;;;;;23.39;63.63;98218.22;4976280;28;20070;-72
2021/07/30 06:53:25;;;;;;;20.23;14.20;;;;;;;23.43;63.19;98216.25;4973949;28;20459;-71
2021/07/30 06:55:51;;;;;;;25.52;14.40;;;;;;;23.47;63.08;98208.66;4982469;28;20143;-72
2021/07/30 06:58:17;;;;;;;25.73;14.05;;;;;;;23.42;63.17;98209.84;4983055;28;20047;-71
2021/07/30 07:00:43;;;;;;;21.17;12.60;;;;;;;23.46;63.07;98209.84;4981317;28;20050;-74
2021/07/30 07:03:09;;;;;;;20.80;12.63;;;;;;;23.46;62.74;98215.44;4973521;28;20546;-75
2021/07/30 07:05:37;;;;;;;25.02;13.15;;;;;;;23.48;62.66;98211.03;4984798;28;20700;-73
2021/07/30 07:08:03;;;;;;;18.52;12.05;;;;;;;23.49;62.49;98217.41;4975700;28;20506;-73
2021/07/30 07:10:29;;;;;;;17.63;11.02;;;;;;;23.51;62.51;98217.81;4953427;28;20047;-71
2021/07/30 07:12:55;;;;;;;17.05;10.73;;;;;;;23.52;62.26;98213.81;4971551;28;20425;-72
2021/07/30 07:15:21;;;;;;;16.48;10.75;;;;;;;23.56;62.01;98211.81;4955569;28;20039;-74
2021/07/30 07:17:47;;;;;;;18.95;10.90;;;;;;;23.59;61.60;98207.44;4963828;28;20112;-72
2021/07/30 07:20:13;;;;;;;17.65;9.93;;;;;;;23.61;61.85;98214.22;4963772;28;20058;-69
2021/07/30 07:22:41;;;;;;;17.33;10.27;;;;;;;23.61;61.49;98219.78;4958197;28;20061;-74
2021/07/30 07:25:08;;;;;;;24.08;9.82;;;;;;;23.62;61.61;98217.78;4967144;28;20051;-70
2021/07/30 07:27:36;;;;;;;18.33;9.73;;;;;;;23.67;61.48;98219.38;4956779;28;20410;-71
2021/07/30 07:30:02;;;;;;;16.30;8.90;;;;;;;23.63;61.51;98219.38;4952373;28;20058;-70
2021/07/30 07:32:29;;;;;;;16.40;8.40;;;;;;;23.62;61.57;98215.00;4942320;28;20570;-70
2021/07/30 07:34:55;;;;;;;15.50;9.55;;;;;;;23.62;61.23;98224.16;4953473;28;20059;-70
2021/07/30 07:37:21;;;;;;;17.20;8.85;;;;;;;23.62;61.27;98224.16;4969150;28;20098;-71
2021/07/30 07:39:48;;;;;;;13.02;7.85;;;;;;;23.67;61.08;98231.34;4958318;28;20514;-70
2021/07/30 07:42:15;;;;;;;17.45;7.95;;;;;;;23.61;61.36;98230.13;4954347;28;20050;-70
2021/07/30 07:44:41;;;;;;;18.73;9.10;;;;;;;23.61;61.35;98233.72;4960077;28;20503;-70
2021/07/30 07:47:07;;;;;;;13.45;7.57;;;;;;;23.64;61.07;98237.69;4951384;28;20050;-71
2021/07/30 07:49:33;;;;;;;18.25;8.55;;;;;;;23.64;61.27;98223.75;4957479;28;20541;-71
2021/07/30 07:51:59;;;;;;;20.23;9.07;;;;;;;23.59;61.53;98227.75;4952548;28;20469;-71
2021/07/30 07:54:25;;;;;;;14.57;8.80;;;;;;;23.55;61.46;98232.53;4958956;28;20043;-70
2021/07/30 07:56:54;;;;;;;14.27;8.05;;;;;;;23.48;61.66;98207.47;4957169;28;20134;-71
2021/07/30 07:59:20;;;;;;;14.27;7.32;;;;;;;23.61;61.44;98219.78;4961617;28;20415;-71
2021/07/30 08:01:46;;;;;;;18.88;8.38;;;;;;;23.61;61.43;98225.38;4956161;28;20050;-71
2021/07/30 08:04:15;;;;;;;16.35;7.93;;;;;;;23.67;61.30;98227.75;4946560;28;20057;-78
2021/07/30 08:06:41;;;;;;;17.13;8.68;;;;;;;23.66;61.23;98226.94;4950398;28;20150;-77
2021/07/30 08:09:07;;;;;;;14.88;8.93;;;;;;;23.67;61.15;98224.94;4950734;28;20051;-77
2021/07/30 08:11:33;;;;;;;22.88;8.73;;;;;;;23.68;61.13;98224.56;4958851;28;20088;-75
2021/07/30 08:14:01;;;;;;;15.45;8.23;;;;;;;23.67;61.33;98216.56;4958960;28;20055;-76
2021/07/30 08:16:27;;;;;;;15.02;8.43;;;;;;;23.67;61.32;98224.94;4948088;28;20050;-76
2021/07/30 08:18:54;;;;;;;16.67;8.73;;;;;;;23.67;61.33;98222.97;4961262;28;20035;-75
2021/07/30 08:21:20;;;;;;;18.55;9.40;;;;;;;23.63;61.40;98222.16;4962113;28;20050;-76
2021/07/30 08:23:46;;;;;;;16.27;9.35;;;;;;;23.66;61.39;98213.00;4958398;28;20096;-75
2021/07/30 08:26:12;;;;;;;14.75;8.60;;;;;;;23.81;61.21;98219.34;4968886;28;20085;-76
2021/07/30 08:28:38;;;;;;;15.70;8.90;;;;;;;23.88;60.72;98216.53;4987688;28;20078;-77
2021/07/30 08:31:05;;;;;;;14.30;8.00;;;;;;;24.00;60.56;98223.66;4976769;28;20101;-76
2021/07/30 08:33:33;;;;;;;16.17;7.63;;;;;;;24.11;60.53;98223.66;4973088;28;20301;-74
2021/07/30 08:35:59;;;;;;;14.48;6.90;;;;;;;24.18;60.07;98220.03;4981590;28;20524;-76
2021/07/30 08:38:25;;;;;;;13.25;6.68;;;;;;;24.27;59.83;98227.97;4995097;28;20040;-75
2021/07/30 08:40:52;;;;;;;11.82;6.57;;;;;;;24.27;59.61;98214.00;4991689;28;20111;-77
2021/07/30 08:43:18;;;;;;;15.23;7.17;;;;;;;24.31;59.69;98214.78;4947172;28;20051;-76
2021/07/30 08:45:49;;;;;;;12.83;6.43;;;;;;;24.30;59.76;98216.78;4988495;28;20050;-76
2021/07/30 08:48:18;;;;;;;13.50;6.50;;;;;;;24.33;59.70;98217.94;4980539;28;20070;-75
2021/07/30 08:50:45;;;;;;;15.73;8.27;;;;;;;24.32;59.49;98219.16;4948142;28;20046;-75
2021/07/30 08:53:22;;;;;;;11.50;7.22;;;;;;;24.29;59.80;98225.56;4945058;28;20146;-75
2021/07/30 08:55:49;;;;;;;15.52;8.27;;;;;;;24.23;59.68;98224.41;4973435;28;20133;-72
2021/07/30 08:58:15;;;;;;;15.50;9.10;;;;;;;24.13;59.78;98215.66;4965009;28;20043;-71
2021/07/30 09:00:41;;;;;;;17.33;8.63;;;;;;;24.12;59.95;98218.84;4957996;28;20465;-71
2021/07/30 09:03:08;;;;;;;16.05;9.18;;;;;;;23.98;59.96;98216.88;4959055;28;20039;-69
2021/07/30 09:05:36;;;;;;;16.75;8.38;;;;;;;23.99;60.01;98222.06;4966915;28;20055;-71
2021/07/30 09:08:03;;;;;;;16.10;9.23;;;;;;;23.99;60.02;98218.47;4967861;28;20137;-70
2021/07/30 09:10:32;;;;;;;15.90;8.18;;;;;;;23.98;60.10;98216.88;4963163;28;20061;-70
2021/07/30 09:13:23;;;;;;;18.65;9.10;;;;;;;23.99;60.04;98226.84;4965232;28;20031;-70
2021/07/30 09:15:59;;;;;;;16.48;8.82;;;;;;;23.92;59.81;98224.88;4960234;28;20055;-71
2021/07/30 09:18:27;;;;;;;20.90;8.95;;;;;;;23.87;59.65;98220.50;4951382;28;20153;-70
2021/07/30 09:20:55;;;;;;;16.38;9.10;;;;;;;23.86;60.00;98216.13;4957480;28;20078;-70
2021/07/30 09:23:22;;;;;;;17.38;9.55;;;;;;;23.85;60.04;98222.91;4977576;28;20045;-70
2021/07/30 09:25:48;;;;;;;24.15;9.75;;;;;;;23.82;59.53;98220.91;4971469;28;20062;-71
2021/07/30 09:28:14;;;;;;;14.95;8.35;;;;;;;23.83;59.75;98227.31;4949686;28;20457;-69
2021/07/30 09:30:54;;;;;;;18.17;8.82;;;;;;;23.81;60.07;98230.50;4959962;28;20073;-84
2021/07/30 09:33:26;;;;;;;19.52;9.07;;;;;;;23.80;59.82;98228.91;4957051;28;20053;-68
2021/07/30 09:36:00;;;;;;;17.58;9.48;;;;;;;23.72;60.00;98225.34;4947400;28;20043;-68
2021/07/30 09:38:26;;;;;;;18.60;8.63;;;;;;;23.77;60.08;98236.06;4939580;28;20121;-69
2021/07/30 09:41:13;;;;;;;18.35;9.05;;;;;;;23.72;60.23;98227.31;4954937;28;20042;-68
2021/07/30 09:43:44;;;;;;;16.25;8.70;;;;;;;23.77;60.16;98232.50;4949640;28;20043;-69
2021/07/30 09:46:12;;;;;;;15.35;8.50;;;;;;;23.83;60.05;98221.72;4954131;28;20059;-69
2021/07/30 09:48:47;;;;;;;17.02;8.85;;;;;;;23.96;60.05;98213.72;4952056;28;20273;-70
2021/07/30 09:51:15;;;;;;;18.52;8.80;;;;;;;24.01;59.36;98218.84;4969258;28;20062;-69
2021/07/30 09:53:42;;;;;;;19.08;9.30;;;;;;;24.05;59.47;98212.09;4951410;29;20074;-67
2021/07/30 09:56:09;;;;;;;16.67;8.65;;;;;;;24.14;59.18;98214.47;4959396;28;20065;-68
2021/07/30 09:58:36;;;;;;;18.20;7.97;;;;;;;24.26;59.94;98207.59;4971736;28;20042;-68
2021/07/30 10:01:03;;;;;;;17.20;7.53;;;;;;;24.32;59.90;98206.00;4950842;28;20047;-66
2021/07/30 10:03:30;;;;;;;16.02;8.63;;;;;;;24.35;59.65;98201.59;4968409;28;20046;-69
2021/07/30 10:05:56;;;;;;;;;;;;;;;24.35;59.51;98202.38;4955703;28;20040;-68
2021/07/30 10:08:24;;;;;;;15.82;9.00;;;;;;;24.37;59.16;98193.63;4954394;28;19926;-67
2021/07/30 10:10:51;;;;;;;18.13;8.32;;;;;;;24.34;59.17;98194.41;4955733;28;20582;-68
2021/07/30 10:13:24;;;;;;;17.55;8.98;;;;;;;24.33;58.62;98192.81;4920507;29;20515;-68
2021/07/30 10:15:51;;;;;;;26.88;8.80;;;;;;;24.32;58.45;98185.66;4953459;28;20044;-68
2021/07/30 10:18:20;;;;;;;21.85;8.65;;;;;;;24.39;58.85;98174.44;4953867;28;20047;-68
2021/07/30 10:20:58;;;;;;;13.48;7.50;;;;;;;24.48;59.12;98174.78;4952007;28;20138;-68
2021/07/30 10:23:27;;;;;;;17.30;8.45;;;;;;;24.54;59.35;98169.56;4953426;28;20558;-67
2021/07/30 10:25:57;;;;;;;19.02;7.82;;;;;;;24.61;59.00;98174.31;4951818;29;20480;-68
2021/07/30 10:28:26;;;;;;;16.48;8.05;;;;;;;24.69;59.07;98163.88;4939794;28;20054;-68
2021/07/30 10:30:52;;;;;;;19.52;8.57;;;;;;;24.73;58.59;98157.06;4956024;28;20575;-67
2021/07/30 10:33:45;;;;;;;19.50;8.30;;;;;;;24.78;58.06;98150.28;4950748;29;20047;-67
2021/07/30 10:36:13;;;;;;;14.63;7.05;;;;;;;24.86;58.78;98151.78;4964282;28;20046;-70
2021/07/30 10:38:41;;;;;;;19.67;7.20;;;;;;;24.97;59.04;98139.72;4968177;28;20141;-71
2021/07/30 10:41:14;;;;;;;21.23;7.75;;;;;;;25.04;59.20;98145.25;4955149;28;20051;-70
2021/07/30 10:44:03;;;;;;;17.77;8.20;;;;;;;25.09;58.50;98135.63;4953170;28;20158;-70
2021/07/30 10:46:29;;;;;;;17.83;7.45;;;;;;;25.08;58.31;98134.03;4951874;29;20051;-70
2021/07/30 10:48:56;;;;;;;15.38;8.30;;;;;;;25.16;57.80;98136.34;4957219;28;20517;-71
2021/07/30 10:51:24;;;;;;;14.63;7.88;;;;;;;25.22;57.67;98131.09;4965899;28;20080;-70
2021/07/30 10:53:53;;;;;;;18.75;8.63;;;;;;;25.23;57.57;98117.94;4963473;28;20097;-70
2021/07/30 10:56:48;;;;;;;17.75;7.95;;;;;;;25.33;57.31;98120.59;4954705;28;20050;-70
2021/07/30 10:59:17;;;;;;;20.55;8.68;;;;;;;25.40;57.09;98121.72;4956140;28;20054;-70
2021/07/30 11:01:59;;;;;;;20.65;11.68;;;;;;;25.43;55.92;98118.09;4969239;28;20144;-71
2021/07/30 11:04:26;;;;;;;21.70;11.65;;;;;;;25.47;55.57;98122.44;4955491;28;20054;-71
2021/07/30 11:06:54;;;;;;;19.60;11.50;;;;;;;25.57;55.53;98125.56;4964058;28;20507;-71
2021/07/30 11:09:37;;;;;;;29.63;13.25;;;;;;;25.61;54.84;98117.94;4991063;28;20482;-70
2021/07/30 11:12:04;;;;;;;24.75;12.52;;;;;;;25.68;54.59;98115.06;4991173;28;20188;-71
2021/07/30 11:14:34;;;;;;;23.27;11.93;;;;;;;25.82;53.80;98118.88;4986516;28;20054;-71
2021/07/30 11:17:02;;;;;;;21.83;10.80;;;;;;;25.88;53.95;98112.38;4940577;28;20050;-70
2021/07/30 11:19:30;;;;;;;20.50;10.98;;;;;;;25.91;53.73;98105.97;4967433;28;20062;-70